sensor_id;sensor_type;location;lat;lon;timestamp;pressure;altitude;pressure_sealevel;temperature;humidity
6395;BME280;3230;42.588;23.358;2024-02-26T00:00:33;90584.06;;;5.47;100.00
6395;BME280;3230;42.588;23.358;2024-02-26T00:03:00;90591.63;;;5.53;100.00
6395;BME280;3230;42.588;23.358;2024-02-26T00:05:25;90585.16;;;5.56;100.00
6395;BME280;3230;42.588;23.358;2024-02-26T00:07:51;90579.69;;;5.57;100.00
6395;BME280;3230;42.588;23.358;2024-02-26T00:10:16;90585.69;;;5.63;100.00
6395;BME280;3230;42.588;23.358;2024-02-26T00:12:41;90590.56;;;5.49;100.00
6395;BME280;3230;42.588;23.358;2024-02-26T00:15:08;90584.59;;;5.54;100.00
6395;BME280;3230;42.588;23.358;2024-02-26T00:17:34;90568.72;;;5.45;100.00
6395;BME280;3230;42.588;23.358;2024-02-26T00:19:59;90577.88;;;5.58;100.00
6395;BME280;3230;42.588;23.358;2024-02-26T00:22:26;90571.69;;;5.69;100.00
6395;BME280;3230;42.588;23.358;2024-02-26T00:24:51;90569.09;;;5.69;100.00
6395;BME280;3230;42.588;23.358;2024-02-26T00:27:17;90568.59;;;5.78;100.00
6395;BME280;3230;42.588;23.358;2024-02-26T00:29:42;90563.94;;;5.85;100.00
6395;BME280;3230;42.588;23.358;2024-02-26T00:32:07;90564.50;;;5.97;100.00
6395;BME280;3230;42.588;23.358;2024-02-26T00:34:33;90566.28;;;5.91;100.00
6395;BME280;3230;42.588;23.358;2024-02-26T00:36:58;90563.41;;;5.93;100.00
6395;BME280;3230;42.588;23.358;2024-02-26T00:39:24;90565.31;;;6.03;100.00
6395;BME280;3230;42.588;23.358;2024-02-26T00:41:49;90566.91;;;6.19;100.00
6395;BME280;3230;42.588;23.358;2024-02-26T00:44:17;90565.09;;;6.30;100.00
6395;BME280;3230;42.588;23.358;2024-02-26T00:46:42;90567.69;;;6.35;100.00
6395;BME280;3230;42.588;23.358;2024-02-26T00:49:07;90557.81;;;6.48;100.00
6395;BME280;3230;42.588;23.358;2024-02-26T00:51:33;90561.47;;;6.52;100.00
6395;BME280;3230;42.588;23.358;2024-02-26T00:53:58;90557.31;;;6.66;100.00
6395;BME280;3230;42.588;23.358;2024-02-26T00:56:23;90548.22;;;6.64;100.00
6395;BME280;3230;42.588;23.358;2024-02-26T00:58:49;90546.63;;;6.73;100.00
6395;BME280;3230;42.588;23.358;2024-02-26T01:01:14;90545.31;;;6.55;100.00
6395;BME280;3230;42.588;23.358;2024-02-26T01:03:40;90537.53;;;6.39;100.00
6395;BME280;3230;42.588;23.358;2024-02-26T01:06:05;90547.41;;;6.43;100.00
6395;BME280;3230;42.588;23.358;2024-02-26T01:08:30;90545.59;;;6.53;100.00
6395;BME280;3230;42.588;23.358;2024-02-26T01:10:57;90539.09;;;6.46;100.00
6395;BME280;3230;42.588;23.358;2024-02-26T01:13:22;90548.44;;;6.42;100.00
6395;BME280;3230;42.588;23.358;2024-02-26T01:15:48;90542.47;;;6.41;100.00
6395;BME280;3230;42.588;23.358;2024-02-26T01:18:13;90543.50;;;6.45;100.00
6395;BME280;3230;42.588;23.358;2024-02-26T01:20:38;90536.47;;;6.20;100.00
6395;BME280;3230;42.588;23.358;2024-02-26T01:23:04;90532.84;;;6.26;100.00
6395;BME280;3230;42.588;23.358;2024-02-26T01:25:29;90526.34;;;6.29;100.00
6395;BME280;3230;42.588;23.358;2024-02-26T01:27:54;90534.38;;;6.22;100.00
6395;BME280;3230;42.588;23.358;2024-02-26T01:30:20;90529.19;;;6.22;100.00
6395;BME280;3230;42.588;23.358;2024-02-26T01:32:46;90525.28;;;6.40;100.00
6395;BME280;3230;42.588;23.358;2024-02-26T01:35:11;90521.91;;;6.45;100.00
6395;BME280;3230;42.588;23.358;2024-02-26T01:37:37;90524.75;;;6.53;100.00
6395;BME280;3230;42.588;23.358;2024-02-26T01:40:03;90529.44;;;6.62;100.00
6395;BME280;3230;42.588;23.358;2024-02-26T01:42:30;90531.81;;;6.58;100.00
6395;BME280;3230;42.588;23.358;2024-02-26T01:44:57;90525.81;;;6.52;100.00
6395;BME280;3230;42.588;23.358;2024-02-26T01:47:23;90523.19;;;6.52;100.00
6395;BME280;3230;42.588;23.358;2024-02-26T01:49:48;90524.22;;;6.72;100.00
6395;BME280;3230;42.588;23.358;2024-02-26T01:52:14;90525.53;;;6.64;100.00
6395;BME280;3230;42.588;23.358;2024-02-26T01:54:41;90525.03;;;6.57;100.00
6395;BME280;3230;42.588;23.358;2024-02-26T01:57:08;90524.50;;;6.55;100.00
6395;BME280;3230;42.588;23.358;2024-02-26T01:59:34;90519.81;;;6.57;100.00
6395;BME280;3230;42.588;23.358;2024-02-26T02:02:01;90511.75;;;6.59;100.00
6395;BME280;3230;42.588;23.358;2024-02-26T02:04:28;90523.97;;;6.68;100.00
6395;BME280;3230;42.588;23.358;2024-02-26T02:06:54;90519.03;;;6.72;100.00
6395;BME280;3230;42.588;23.358;2024-02-26T02:09:20;90505.22;;;6.71;100.00
6395;BME280;3230;42.588;23.358;2024-02-26T02:11:48;90509.91;;;6.80;100.00
6395;BME280;3230;42.588;23.358;2024-02-26T02:14:14;90508.84;;;6.76;100.00
6395;BME280;3230;42.588;23.358;2024-02-26T02:16:39;90514.63;;;6.67;100.00
6395;BME280;3230;42.588;23.358;2024-02-26T02:19:05;90520.59;;;6.73;100.00
6395;BME280;3230;42.588;23.358;2024-02-26T02:21:30;90520.06;;;6.81;100.00
6395;BME280;3230;42.588;23.358;2024-02-26T02:23:56;90510.44;;;6.77;100.00
6395;BME280;3230;42.588;23.358;2024-02-26T02:26:22;90505.47;;;6.80;100.00
6395;BME280;3230;42.588;23.358;2024-02-26T02:28:48;90504.72;;;6.69;100.00
6395;BME280;3230;42.588;23.358;2024-02-26T02:31:14;90518.78;;;6.48;100.00
6395;BME280;3230;42.588;23.358;2024-02-26T02:33:40;90526.06;;;6.40;100.00
6395;BME280;3230;42.588;23.358;2024-02-26T02:36:06;90518.25;;;6.35;100.00
6395;BME280;3230;42.588;23.358;2024-02-26T02:38:35;90519.03;;;6.41;100.00
6395;BME280;3230;42.588;23.358;2024-02-26T02:41:00;90517.50;;;6.50;100.00
6395;BME280;3230;42.588;23.358;2024-02-26T02:43:26;90517.97;;;6.57;100.00
6395;BME280;3230;42.588;23.358;2024-02-26T02:45:51;90531.28;;;6.56;100.00
6395;BME280;3230;42.588;23.358;2024-02-26T02:48:17;90524.00;;;6.53;100.00
6395;BME280;3230;42.588;23.358;2024-02-26T02:50:43;90526.31;;;6.44;100.00
6395;BME280;3230;42.588;23.358;2024-02-26T02:53:08;90531.53;;;6.39;100.00
6395;BME280;3230;42.588;23.358;2024-02-26T02:55:34;90522.44;;;6.47;100.00
6395;BME280;3230;42.588;23.358;2024-02-26T02:57:59;90525.81;;;6.52;100.00
6395;BME280;3230;42.588;23.358;2024-02-26T03:00:24;90526.84;;;6.56;100.00
6395;BME280;3230;42.588;23.358;2024-02-26T03:02:50;90528.16;;;6.64;100.00
6395;BME280;3230;42.588;23.358;2024-02-26T03:05:15;90537.28;;;6.56;100.00
6395;BME280;3230;42.588;23.358;2024-02-26T03:07:41;90539.34;;;6.49;100.00
6395;BME280;3230;42.588;23.358;2024-02-26T03:10:06;90531.78;;;6.43;100.00
6395;BME280;3230;42.588;23.358;2024-02-26T03:12:33;90533.09;;;6.55;100.00
6395;BME280;3230;42.588;23.358;2024-02-26T03:14:58;90543.00;;;6.69;100.00
6395;BME280;3230;42.588;23.358;2024-02-26T03:17:26;90537.78;;;6.64;100.00
6395;BME280;3230;42.588;23.358;2024-02-26T03:19:51;90536.47;;;6.71;100.00
6395;BME280;3230;42.588;23.358;2024-02-26T03:22:19;90522.44;;;6.67;100.00
6395;BME280;3230;42.588;23.358;2024-02-26T03:24:45;90527.88;;;6.81;100.00
6395;BME280;3230;42.588;23.358;2024-02-26T03:27:11;90522.94;;;6.69;100.00
6395;BME280;3230;42.588;23.358;2024-02-26T03:29:39;90526.84;;;6.77;100.00
6395;BME280;3230;42.588;23.358;2024-02-26T03:32:05;90523.44;;;6.61;100.00
6395;BME280;3230;42.588;23.358;2024-02-26T03:34:32;90521.91;;;6.60;100.00
6395;BME280;3230;42.588;23.358;2024-02-26T03:36:59;90515.13;;;6.64;100.00
6395;BME280;3230;42.588;23.358;2024-02-26T03:39:25;90514.09;;;6.45;100.00
6395;BME280;3230;42.588;23.358;2024-02-26T03:41:50;90524.00;;;6.58;100.00
6395;BME280;3230;42.588;23.358;2024-02-26T03:44:16;90510.72;;;6.70;100.00
6395;BME280;3230;42.588;23.358;2024-02-26T03:46:41;90500.03;;;6.66;100.00
6395;BME280;3230;42.588;23.358;2024-02-26T03:49:10;90514.63;;;6.67;100.00
6395;BME280;3230;42.588;23.358;2024-02-26T03:51:36;90510.19;;;6.63;100.00
6395;BME280;3230;42.588;23.358;2024-02-26T03:54:02;90506.28;;;6.65;100.00
6395;BME280;3230;42.588;23.358;2024-02-26T03:56:28;90511.50;;;6.60;100.00
6395;BME280;3230;42.588;23.358;2024-02-26T03:58:53;90505.78;;;6.53;100.00
6395;BME280;3230;42.588;23.358;2024-02-26T04:01:19;90501.59;;;6.52;100.00
6395;BME280;3230;42.588;23.358;2024-02-26T04:03:44;90507.84;;;6.61;100.00
6395;BME280;3230;42.588;23.358;2024-02-26T04:06:11;90511.75;;;6.64;100.00
6395;BME280;3230;42.588;23.358;2024-02-26T04:08:37;90507.84;;;6.46;100.00
6395;BME280;3230;42.588;23.358;2024-02-26T04:11:03;90501.63;;;6.26;100.00
6395;BME280;3230;42.588;23.358;2024-02-26T04:13:33;90500.03;;;6.30;100.00
6395;BME280;3230;42.588;23.358;2024-02-26T04:15:58;90509.41;;;6.36;100.00
6395;BME280;3230;42.588;23.358;2024-02-26T04:18:24;90510.44;;;6.40;100.00
6395;BME280;3230;42.588;23.358;2024-02-26T04:20:49;90494.06;;;6.45;100.00
6395;BME280;3230;42.588;23.358;2024-02-26T04:23:16;90483.13;;;6.48;100.00
6395;BME280;3230;42.588;23.358;2024-02-26T04:25:42;90493.81;;;6.47;100.00
6395;BME280;3230;42.588;23.358;2024-02-26T04:28:07;90496.13;;;6.48;100.00
6395;BME280;3230;42.588;23.358;2024-02-26T04:30:32;90493.25;;;6.34;100.00
6395;BME280;3230;42.588;23.358;2024-02-26T04:32:58;90488.34;;;6.33;100.00
6395;BME280;3230;42.588;23.358;2024-02-26T04:35:23;90498.22;;;6.41;100.00
6395;BME280;3230;42.588;23.358;2024-02-26T04:37:49;90492.25;;;6.25;100.00
6395;BME280;3230;42.588;23.358;2024-02-26T04:40:14;90487.28;;;6.34;100.00
6395;BME280;3230;42.588;23.358;2024-02-26T04:42:40;90487.28;;;6.18;100.00
6395;BME280;3230;42.588;23.358;2024-02-26T04:45:06;90486.78;;;6.21;100.00
6395;BME280;3230;42.588;23.358;2024-02-26T04:47:32;90488.59;;;6.16;100.00
6395;BME280;3230;42.588;23.358;2024-02-26T04:49:58;90488.06;;;6.08;100.00
6395;BME280;3230;42.588;23.358;2024-02-26T04:52:23;90479.72;;;6.01;100.00
6395;BME280;3230;42.588;23.358;2024-02-26T04:54:48;90488.06;;;6.14;100.00
6395;BME280;3230;42.588;23.358;2024-02-26T04:57:14;90500.28;;;6.08;100.00
6395;BME280;3230;42.588;23.358;2024-02-26T04:59:39;90496.66;;;6.09;100.00
6395;BME280;3230;42.588;23.358;2024-02-26T05:02:07;90503.16;;;6.17;100.00
6395;BME280;3230;42.588;23.358;2024-02-26T05:04:32;90501.06;;;6.14;100.00
6395;BME280;3230;42.588;23.358;2024-02-26T05:06:58;90509.13;;;6.12;100.00
6395;BME280;3230;42.588;23.358;2024-02-26T05:09:23;90512.00;;;6.16;100.00
6395;BME280;3230;42.588;23.358;2024-02-26T05:11:49;90507.59;;;6.16;100.00
6395;BME280;3230;42.588;23.358;2024-02-26T05:14:14;90519.03;;;6.31;100.00
6395;BME280;3230;42.588;23.358;2024-02-26T05:16:39;90518.25;;;6.25;100.00
6395;BME280;3230;42.588;23.358;2024-02-26T05:19:05;90520.06;;;6.24;100.00
6395;BME280;3230;42.588;23.358;2024-02-26T05:21:31;90520.88;;;6.25;100.00
6395;BME280;3230;42.588;23.358;2024-02-26T05:23:56;90513.84;;;6.20;100.00
6395;BME280;3230;42.588;23.358;2024-02-26T05:26:22;90526.59;;;6.32;100.00
6395;BME280;3230;42.588;23.358;2024-02-26T05:28:48;90530.47;;;6.45;100.00
6395;BME280;3230;42.588;23.358;2024-02-26T05:31:14;90531.53;;;6.60;100.00
6395;BME280;3230;42.588;23.358;2024-02-26T05:33:39;90534.41;;;6.58;100.00
6395;BME280;3230;42.588;23.358;2024-02-26T05:36:06;90541.44;;;6.42;100.00
6395;BME280;3230;42.588;23.358;2024-02-26T05:38:31;90537.00;;;6.43;100.00
6395;BME280;3230;42.588;23.358;2024-02-26T05:40:57;90544.28;;;6.46;100.00
6395;BME280;3230;42.588;23.358;2024-02-26T05:43:27;90551.84;;;6.47;100.00
6395;BME280;3230;42.588;23.358;2024-02-26T05:45:52;90544.81;;;6.63;100.00
6395;BME280;3230;42.588;23.358;2024-02-26T05:48:18;90545.59;;;6.74;100.00
6395;BME280;3230;42.588;23.358;2024-02-26T05:50:45;90547.69;;;6.56;100.00
6395;BME280;3230;42.588;23.358;2024-02-26T05:53:10;90545.34;;;6.60;100.00
6395;BME280;3230;42.588;23.358;2024-02-26T05:55:35;90538.03;;;6.78;100.00
6395;BME280;3230;42.588;23.358;2024-02-26T05:58:01;90541.16;;;6.64;100.00
6395;BME280;3230;42.588;23.358;2024-02-26T06:00:26;90546.91;;;6.66;100.00
6395;BME280;3230;42.588;23.358;2024-02-26T06:02:52;90563.03;;;6.68;100.00
6395;BME280;3230;42.588;23.358;2024-02-26T06:05:17;90559.91;;;6.77;100.00
6395;BME280;3230;42.588;23.358;2024-02-26T06:07:43;90562.78;;;6.75;100.00
6395;BME280;3230;42.588;23.358;2024-02-26T06:10:08;90565.09;;;6.82;100.00
6395;BME280;3230;42.588;23.358;2024-02-26T06:12:37;90568.22;;;6.89;100.00
6395;BME280;3230;42.588;23.358;2024-02-26T06:15:03;90569.25;;;6.98;100.00
6395;BME280;3230;42.588;23.358;2024-02-26T06:17:29;90566.13;;;6.96;100.00
6395;BME280;3230;42.588;23.358;2024-02-26T06:19:54;90569.78;;;7.00;100.00
6395;BME280;3230;42.588;23.358;2024-02-26T06:22:20;90574.69;;;7.12;100.00
6395;BME280;3230;42.588;23.358;2024-02-26T06:24:45;90569.50;;;7.12;100.00
6395;BME280;3230;42.588;23.358;2024-02-26T06:27:11;90568.44;;;7.24;100.00
6395;BME280;3230;42.588;23.358;2024-02-26T06:29:37;90572.38;;;7.21;100.00
6395;BME280;3230;42.588;23.358;2024-02-26T06:32:03;90561.91;;;7.42;100.00
6395;BME280;3230;42.588;23.358;2024-02-26T06:34:28;90557.41;;;7.47;100.00
6395;BME280;3230;42.588;23.358;2024-02-26T06:36:53;90561.31;;;7.55;100.00
6395;BME280;3230;42.588;23.358;2024-02-26T06:39:19;90564.94;;;7.64;100.00
6395;BME280;3230;42.588;23.358;2024-02-26T06:41:44;90566.22;;;7.67;100.00
6395;BME280;3230;42.588;23.358;2024-02-26T06:44:12;90570.13;;;7.75;100.00
6395;BME280;3230;42.588;23.358;2024-02-26T06:46:38;90570.84;;;7.86;100.00
6395;BME280;3230;42.588;23.358;2024-02-26T06:49:03;90570.34;;;7.83;100.00
6395;BME280;3230;42.588;23.358;2024-02-26T06:51:29;90571.31;;;7.98;100.00
6395;BME280;3230;42.588;23.358;2024-02-26T06:53:54;90571.56;;;7.96;100.00
6395;BME280;3230;42.588;23.358;2024-02-26T06:56:19;90569.44;;;8.09;100.00
6395;BME280;3230;42.588;23.358;2024-02-26T06:58:45;90566.09;;;7.98;100.00
6395;BME280;3230;42.588;23.358;2024-02-26T07:01:12;90562.59;;;8.18;100.00
6395;BME280;3230;42.588;23.358;2024-02-26T07:03:40;90575.44;;;8.09;100.00
6395;BME280;3230;42.588;23.358;2024-02-26T07:06:05;90581.63;;;8.24;100.00
6395;BME280;3230;42.588;23.358;2024-02-26T07:08:32;90586.81;;;8.29;100.00
6395;BME280;3230;42.588;23.358;2024-02-26T07:10:57;90595.31;;;8.55;100.00
6395;BME280;3230;42.588;23.358;2024-02-26T07:13:23;90597.91;;;8.55;100.00
6395;BME280;3230;42.588;23.358;2024-02-26T07:15:48;90595.34;;;8.50;100.00
6395;BME280;3230;42.588;23.358;2024-02-26T07:18:14;90597.44;;;8.38;100.00
6395;BME280;3230;42.588;23.358;2024-02-26T07:20:39;90591.25;;;8.28;100.00
6395;BME280;3230;42.588;23.358;2024-02-26T07:23:05;90590.75;;;8.26;100.00
6395;BME280;3230;42.588;23.358;2024-02-26T07:25:30;90596.13;;;8.45;100.00
6395;BME280;3230;42.588;23.358;2024-02-26T07:27:55;90595.22;;;8.66;99.10
6395;BME280;3230;42.588;23.358;2024-02-26T07:30:21;90600.19;;;8.67;99.54
6395;BME280;3230;42.588;23.358;2024-02-26T07:32:46;90587.81;;;8.78;100.00
6395;BME280;3230;42.588;23.358;2024-02-26T07:35:12;90597.00;;;9.05;99.01
6395;BME280;3230;42.588;23.358;2024-02-26T07:37:37;90600.59;;;9.43;98.47
6395;BME280;3230;42.588;23.358;2024-02-26T07:40:03;90600.53;;;9.78;95.82
6395;BME280;3230;42.588;23.358;2024-02-26T07:42:28;90615.34;;;9.83;95.31
6395;BME280;3230;42.588;23.358;2024-02-26T07:44:54;90607.47;;;9.88;94.23
6395;BME280;3230;42.588;23.358;2024-02-26T07:47:19;90619.88;;;10.01;93.02
6395;BME280;3230;42.588;23.358;2024-02-26T07:49:46;90617.47;;;10.29;92.46
6395;BME280;3230;42.588;23.358;2024-02-26T07:52:11;90609.88;;;10.28;91.64
6395;BME280;3230;42.588;23.358;2024-02-26T07:54:36;90616.53;;;10.20;90.46
6395;BME280;3230;42.588;23.358;2024-02-26T07:57:02;90610.94;;;10.27;92.15
6395;BME280;3230;42.588;23.358;2024-02-26T07:59:31;90604.19;;;9.77;92.62
6395;BME280;3230;42.588;23.358;2024-02-26T08:01:56;90606.81;;;9.77;93.75
6395;BME280;3230;42.588;23.358;2024-02-26T08:04:21;90609.72;;;10.19;92.13
6395;BME280;3230;42.588;23.358;2024-02-26T08:06:47;90601.72;;;10.10;92.07
6395;BME280;3230;42.588;23.358;2024-02-26T08:09:12;90605.16;;;10.05;93.13
6395;BME280;3230;42.588;23.358;2024-02-26T08:11:38;90603.28;;;9.63;93.58
6395;BME280;3230;42.588;23.358;2024-02-26T08:14:03;90602.63;;;9.76;95.04
6395;BME280;3230;42.588;23.358;2024-02-26T08:16:29;90598.72;;;9.98;92.96
6395;BME280;3230;42.588;23.358;2024-02-26T08:18:54;90604.63;;;10.08;91.20
6395;BME280;3230;42.588;23.358;2024-02-26T08:21:20;90607.28;;;10.03;91.24
6395;BME280;3230;42.588;23.358;2024-02-26T08:23:45;90599.41;;;10.28;89.97
6395;BME280;3230;42.588;23.358;2024-02-26T08:26:11;90618.31;;;9.76;91.67
6395;BME280;3230;42.588;23.358;2024-02-26T08:28:37;90603.97;;;9.98;91.54
6395;BME280;3230;42.588;23.358;2024-02-26T08:31:03;90605.59;;;10.13;92.34
6395;BME280;3230;42.588;23.358;2024-02-26T08:33:28;90603.88;;;10.27;91.78
6395;BME280;3230;42.588;23.358;2024-02-26T08:35:54;90609.63;;;10.48;90.77
6395;BME280;3230;42.588;23.358;2024-02-26T08:38:19;90605.75;;;10.65;89.49
6395;BME280;3230;42.588;23.358;2024-02-26T08:40:45;90604.47;;;10.62;90.11
6395;BME280;3230;42.588;23.358;2024-02-26T08:43:10;90603.69;;;10.62;87.72
6395;BME280;3230;42.588;23.358;2024-02-26T08:45:35;90609.00;;;10.56;87.55
6395;BME280;3230;42.588;23.358;2024-02-26T08:48:01;90608.44;;;10.79;88.04
6395;BME280;3230;42.588;23.358;2024-02-26T08:50:26;90614.81;;;10.72;86.73
6395;BME280;3230;42.588;23.358;2024-02-26T08:52:52;90608.50;;;10.93;87.31
6395;BME280;3230;42.588;23.358;2024-02-26T08:55:18;90611.44;;;11.05;86.52
6395;BME280;3230;42.588;23.358;2024-02-26T08:57:44;90619.09;;;11.01;85.91
6395;BME280;3230;42.588;23.358;2024-02-26T09:00:10;90608.25;;;11.08;85.19
6395;BME280;3230;42.588;23.358;2024-02-26T09:02:43;90614.69;;;11.16;86.42
6395;BME280;3230;42.588;23.358;2024-02-26T09:05:09;90613.41;;;11.46;86.24
6395;BME280;3230;42.588;23.358;2024-02-26T09:07:41;90611.56;;;11.47;84.47
6395;BME280;3230;42.588;23.358;2024-02-26T09:10:06;90610.44;;;11.20;83.36
6395;BME280;3230;42.588;23.358;2024-02-26T09:12:35;90610.84;;;11.27;84.78
6395;BME280;3230;42.588;23.358;2024-02-26T09:15:01;90604.06;;;11.40;83.15
6395;BME280;3230;42.588;23.358;2024-02-26T09:17:26;90614.06;;;11.05;84.50
6395;BME280;3230;42.588;23.358;2024-02-26T09:19:52;90602.09;;;11.32;85.29
6395;BME280;3230;42.588;23.358;2024-02-26T09:22:17;90604.22;;;10.97;84.63
6395;BME280;3230;42.588;23.358;2024-02-26T09:24:43;90614.81;;;11.25;83.97
6395;BME280;3230;42.588;23.358;2024-02-26T09:27:08;90612.66;;;11.60;87.88
6395;BME280;3230;42.588;23.358;2024-02-26T09:29:35;90608.91;;;11.33;89.34
6395;BME280;3230;42.588;23.358;2024-02-26T09:32:01;90604.88;;;11.55;90.35
6395;BME280;3230;42.588;23.358;2024-02-26T09:34:26;90609.59;;;11.39;89.83
6395;BME280;3230;42.588;23.358;2024-02-26T09:36:52;90604.06;;;11.40;91.09
6395;BME280;3230;42.588;23.358;2024-02-26T09:39:17;90603.22;;;11.59;90.49
6395;BME280;3230;42.588;23.358;2024-02-26T09:41:47;90604.19;;;11.49;89.01
6395;BME280;3230;42.588;23.358;2024-02-26T09:44:16;90607.91;;;11.76;89.47
6395;BME280;3230;42.588;23.358;2024-02-26T09:46:44;90611.16;;;12.00;88.74
6395;BME280;3230;42.588;23.358;2024-02-26T09:49:10;90596.66;;;12.03;88.75
6395;BME280;3230;42.588;23.358;2024-02-26T09:51:38;90600.66;;;12.00;88.08
6395;BME280;3230;42.588;23.358;2024-02-26T09:54:04;90596.34;;;11.91;88.39
6395;BME280;3230;42.588;23.358;2024-02-26T09:56:32;90601.03;;;11.94;86.85
6395;BME280;3230;42.588;23.358;2024-02-26T09:58:58;90604.31;;;11.86;85.71
6395;BME280;3230;42.588;23.358;2024-02-26T10:01:24;90607.41;;;11.60;85.08
6395;BME280;3230;42.588;23.358;2024-02-26T10:03:55;90596.31;;;11.63;83.32
6395;BME280;3230;42.588;23.358;2024-02-26T10:06:21;90604.94;;;11.49;83.36
6395;BME280;3230;42.588;23.358;2024-02-26T10:08:47;90607.63;;;11.63;83.92
6395;BME280;3230;42.588;23.358;2024-02-26T10:11:14;90607.31;;;11.51;83.58
6395;BME280;3230;42.588;23.358;2024-02-26T10:13:40;90598.03;;;11.26;84.28
6395;BME280;3230;42.588;23.358;2024-02-26T10:16:06;90593.50;;;11.12;84.51
6395;BME280;3230;42.588;23.358;2024-02-26T10:18:49;90593.84;;;11.39;83.64
6395;BME280;3230;42.588;23.358;2024-02-26T10:21:18;90590.88;;;11.45;85.47
6395;BME280;3230;42.588;23.358;2024-02-26T10:23:44;90580.31;;;11.78;83.21
6395;BME280;3230;42.588;23.358;2024-02-26T10:26:11;90582.72;;;11.75;82.21
6395;BME280;3230;42.588;23.358;2024-02-26T10:28:38;90578.88;;;12.00;82.14
6395;BME280;3230;42.588;23.358;2024-02-26T10:31:04;90574.66;;;11.71;82.37
6395;BME280;3230;42.588;23.358;2024-02-26T10:33:30;90575.84;;;11.79;82.18
6395;BME280;3230;42.588;23.358;2024-02-26T10:35:56;90560.81;;;11.98;82.11
6395;BME280;3230;42.588;23.358;2024-02-26T10:38:22;90565.84;;;12.09;80.80
6395;BME280;3230;42.588;23.358;2024-02-26T10:40:49;90563.84;;;12.28;80.65
6395;BME280;3230;42.588;23.358;2024-02-26T10:43:14;90560.59;;;12.09;80.90
6395;BME280;3230;42.588;23.358;2024-02-26T10:45:41;90558.03;;;11.90;79.70
6395;BME280;3230;42.588;23.358;2024-02-26T10:48:13;90560.78;;;12.12;80.82
6395;BME280;3230;42.588;23.358;2024-02-26T10:50:39;90565.44;;;11.88;78.24
6395;BME280;3230;42.588;23.358;2024-02-26T10:53:12;90561.91;;;12.34;79.43
6395;BME280;3230;42.588;23.358;2024-02-26T10:55:40;90559.06;;;12.44;77.90
6395;BME280;3230;42.588;23.358;2024-02-26T10:58:07;90558.63;;;12.65;77.08
6395;BME280;3230;42.588;23.358;2024-02-26T11:00:34;90557.41;;;12.48;74.44
6395;BME280;3230;42.588;23.358;2024-02-26T11:03:02;90562.94;;;11.96;74.68
6395;BME280;3230;42.588;23.358;2024-02-26T11:05:31;90555.69;;;11.88;77.37
6395;BME280;3230;42.588;23.358;2024-02-26T11:07:59;90556.19;;;12.18;75.78
6395;BME280;3230;42.588;23.358;2024-02-26T11:10:26;90560.38;;;12.05;75.37
6395;BME280;3230;42.588;23.358;2024-02-26T11:12:54;90562.81;;;11.88;76.44
6395;BME280;3230;42.588;23.358;2024-02-26T11:15:20;90561.72;;;11.75;78.29
6395;BME280;3230;42.588;23.358;2024-02-26T11:17:47;90554.03;;;12.20;77.03
6395;BME280;3230;42.588;23.358;2024-02-26T11:20:13;90552.41;;;12.10;75.31
6395;BME280;3230;42.588;23.358;2024-02-26T11:22:39;90556.19;;;12.18;77.46
6395;BME280;3230;42.588;23.358;2024-02-26T11:25:05;90557.38;;;11.98;78.53
6395;BME280;3230;42.588;23.358;2024-02-26T11:27:37;90554.16;;;12.15;78.82
6395;BME280;3230;42.588;23.358;2024-02-26T11:30:05;90558.72;;;12.60;76.19
6395;BME280;3230;42.588;23.358;2024-02-26T11:32:34;90552.63;;;12.51;74.40
6395;BME280;3230;42.588;23.358;2024-02-26T11:35:00;90551.28;;;12.39;74.42
6395;BME280;3230;42.588;23.358;2024-02-26T11:37:26;90551.53;;;12.29;76.99
6395;BME280;3230;42.588;23.358;2024-02-26T11:39:52;90549.41;;;12.54;75.53
6395;BME280;3230;42.588;23.358;2024-02-26T11:42:23;90549.81;;;12.47;75.00
6395;BME280;3230;42.588;23.358;2024-02-26T11:44:49;90546.88;;;11.98;75.76
6395;BME280;3230;42.588;23.358;2024-02-26T11:47:20;90539.63;;;12.31;77.26
6395;BME280;3230;42.588;23.358;2024-02-26T11:49:46;90536.56;;;12.52;76.42
6395;BME280;3230;42.588;23.358;2024-02-26T11:52:13;90540.13;;;12.70;75.56
6395;BME280;3230;42.588;23.358;2024-02-26T11:54:51;90544.81;;;12.82;74.84
6395;BME280;3230;42.588;23.358;2024-02-26T11:59:56;90550.84;;;12.23;74.86
6395;BME280;3230;42.588;23.358;2024-02-26T12:05:18;90534.94;;;12.06;75.58
6395;BME280;3230;42.588;23.358;2024-02-26T12:07:56;90538.81;;;12.08;76.44
6395;BME280;3230;42.588;23.358;2024-02-26T12:10:26;90547.16;;;12.24;75.65
6395;BME280;3230;42.588;23.358;2024-02-26T12:13:12;90542.88;;;12.14;76.02
6395;BME280;3230;42.588;23.358;2024-02-26T12:15:44;90536.16;;;12.22;75.40
6395;BME280;3230;42.588;23.358;2024-02-26T12:18:15;90541.56;;;12.76;74.05
6395;BME280;3230;42.588;23.358;2024-02-26T12:20:42;90547.75;;;12.80;76.15
6395;BME280;3230;42.588;23.358;2024-02-26T12:23:14;90542.38;;;13.08;74.23
6395;BME280;3230;42.588;23.358;2024-02-26T12:25:40;90551.94;;;13.04;71.23
6395;BME280;3230;42.588;23.358;2024-02-26T12:28:06;90550.41;;;13.03;69.71
6395;BME280;3230;42.588;23.358;2024-02-26T12:30:32;90542.59;;;12.98;71.18
6395;BME280;3230;42.588;23.358;2024-02-26T12:32:59;90542.00;;;12.78;70.91
6395;BME280;3230;42.588;23.358;2024-02-26T12:35:26;90546.09;;;13.07;71.47
6395;BME280;3230;42.588;23.358;2024-02-26T12:37:53;90554.28;;;13.60;69.58
6395;BME280;3230;42.588;23.358;2024-02-26T12:40:19;90557.66;;;13.92;66.06
6395;BME280;3230;42.588;23.358;2024-02-26T12:42:45;90562.09;;;13.74;64.88
6395;BME280;3230;42.588;23.358;2024-02-26T12:45:11;90562.13;;;13.51;65.95
6395;BME280;3230;42.588;23.358;2024-02-26T12:47:38;90553.72;;;13.72;64.45
6395;BME280;3230;42.588;23.358;2024-02-26T12:50:04;90563.66;;;13.43;65.66
6395;BME280;3230;42.588;23.358;2024-02-26T12:52:32;90553.47;;;13.51;68.23
6395;BME280;3230;42.588;23.358;2024-02-26T12:54:58;90553.97;;;13.30;66.55
6395;BME280;3230;42.588;23.358;2024-02-26T12:57:24;90552.41;;;13.29;64.43
6395;BME280;3230;42.588;23.358;2024-02-26T12:59:50;90556.25;;;13.23;64.60
6395;BME280;3230;42.588;23.358;2024-02-26T13:02:15;90551.81;;;13.09;65.06
6395;BME280;3230;42.588;23.358;2024-02-26T13:04:41;90550.88;;;12.83;65.64
6395;BME280;3230;42.588;23.358;2024-02-26T13:07:06;90551.06;;;12.86;63.87
6395;BME280;3230;42.588;23.358;2024-02-26T13:09:32;90547.41;;;12.96;63.99
6395;BME280;3230;42.588;23.358;2024-02-26T13:11:59;90550.56;;;13.07;62.01